createdAt,value
2023-02-03T00:00:01.318Z,4.23
2023-02-03T00:02:28.902Z,3.30
2023-02-03T00:04:56.512Z,3.70
2023-02-03T00:07:25.542Z,3.80
2023-02-03T00:09:53.335Z,3.95
2023-02-03T00:12:20.972Z,4.00
2023-02-03T00:14:48.589Z,3.78
2023-02-03T00:17:16.132Z,3.05
2023-02-03T00:19:43.774Z,3.53
2023-02-03T00:22:11.344Z,3.22
2023-02-03T00:24:40.335Z,3.75
2023-02-03T00:27:07.959Z,3.50
2023-02-03T00:29:35.576Z,3.25
2023-02-03T00:32:03.249Z,3.30
2023-02-03T00:34:31.361Z,3.53
2023-02-03T00:36:59.298Z,3.40
2023-02-03T00:39:27.061Z,3.30
2023-02-03T00:41:55.958Z,3.17
2023-02-03T00:44:23.562Z,3.20
2023-02-03T00:46:51.112Z,2.80
2023-02-03T00:49:18.780Z,3.13
2023-02-03T00:51:46.346Z,2.40
2023-02-03T00:54:14.226Z,2.50
2023-02-03T00:56:41.789Z,2.50
2023-02-03T00:59:10.753Z,2.40
2023-02-03T01:01:38.994Z,2.17
2023-02-03T01:04:06.699Z,2.00
2023-02-03T01:06:34.430Z,1.80
2023-02-03T01:09:03.334Z,1.98
2023-02-03T01:11:30.967Z,1.90
2023-02-03T01:14:01.609Z,2.00
2023-02-03T01:16:35.878Z,2.00
2023-02-03T01:19:03.530Z,1.88
2023-02-03T01:21:31.328Z,1.90
2023-02-03T01:23:59.587Z,1.85
2023-02-03T01:26:27.403Z,1.90
2023-02-03T01:28:56.056Z,1.90
2023-02-03T01:31:25.555Z,2.00
2023-02-03T01:33:55.287Z,1.98
2023-02-03T01:36:24.711Z,1.90
2023-02-03T01:38:52.848Z,1.60
2023-02-03T01:41:22.663Z,1.63
2023-02-03T01:43:52.086Z,1.73
2023-02-03T01:46:26.842Z,1.98
2023-02-03T01:49:01.338Z,1.67
2023-02-03T01:51:29.185Z,1.57
2023-02-03T01:53:57.451Z,1.50
2023-02-03T01:56:28.640Z,1.70
2023-02-03T01:58:56.369Z,1.67
2023-02-03T02:01:24.057Z,1.35
2023-02-03T02:03:55.479Z,1.60
2023-02-03T02:06:24.372Z,1.35
2023-02-03T02:08:54.347Z,1.35
2023-02-03T02:11:22.660Z,1.55
2023-02-03T02:13:52.229Z,1.50
2023-02-03T02:16:28.424Z,1.45
2023-02-03T02:19:14.526Z,1.30
2023-02-03T02:21:57.201Z,1.33
2023-02-03T02:24:53.643Z,1.40
2023-02-03T02:27:36.276Z,1.20
2023-02-03T02:30:35.914Z,1.30
2023-02-03T02:33:12.779Z,1.17
2023-02-03T02:35:51.754Z,1.20
2023-02-03T02:38:27.194Z,1.20
2023-02-03T02:41:03.848Z,1.10
2023-02-03T02:43:40.828Z,1.10
2023-02-03T02:46:14.580Z,1.20
2023-02-03T02:48:48.736Z,1.10
2023-02-03T02:51:17.971Z,1.02
2023-02-03T02:53:50.391Z,1.20
2023-02-03T02:56:20.413Z,1.30
2023-02-03T02:58:50.765Z,1.38
2023-02-03T03:01:19.289Z,1.27
2023-02-03T03:03:48.429Z,1.35
2023-02-03T03:06:21.525Z,1.15
2023-02-03T03:08:55.769Z,1.40
2023-02-03T03:11:26.818Z,1.48
2023-02-03T03:13:56.620Z,1.30
2023-02-03T03:16:26.050Z,1.48
2023-02-03T03:19:00.071Z,1.40
2023-02-03T03:21:32.347Z,1.60
2023-02-03T03:24:04.837Z,1.50
2023-02-03T03:26:36.688Z,1.77
2023-02-03T03:29:11.710Z,1.70
2023-02-03T03:31:40.986Z,1.70
2023-02-03T03:34:12.076Z,1.52
2023-02-03T03:36:45.546Z,1.80
2023-02-03T03:39:21.536Z,1.90
2023-02-03T03:41:57.825Z,1.80
2023-02-03T03:44:29.852Z,2.00
2023-02-03T03:47:05.870Z,2.22
2023-02-03T03:49:36.874Z,2.00
2023-02-03T03:52:08.521Z,2.28
2023-02-03T03:54:38.888Z,2.33
2023-02-03T03:57:15.089Z,2.20
2023-02-03T03:59:46.594Z,2.30
2023-02-03T04:02:15.247Z,2.50
2023-02-03T04:04:46.227Z,2.40
2023-02-03T04:07:14.721Z,2.05
2023-02-03T04:09:43.812Z,2.60
2023-02-03T04:12:21.098Z,2.50
2023-02-03T04:14:48.636Z,2.45
2023-02-03T04:17:16.271Z,2.08
2023-02-03T04:19:45.240Z,2.20
2023-02-03T04:22:12.788Z,2.13
2023-02-03T04:24:40.407Z,2.40
2023-02-03T04:27:07.950Z,2.20
2023-02-03T04:29:35.548Z,2.38
2023-02-03T04:32:03.120Z,2.10
2023-02-03T04:34:30.759Z,2.35
2023-02-03T04:36:59.785Z,2.38
2023-02-03T04:39:27.393Z,2.28
2023-02-03T04:41:54.978Z,2.50
2023-02-03T04:44:22.703Z,2.50
2023-02-03T04:46:50.286Z,2.20
2023-02-03T04:49:18.570Z,2.40
2023-02-03T04:51:46.265Z,2.30
2023-02-03T04:54:15.480Z,2.60
2023-02-03T04:56:43.176Z,2.63
2023-02-03T04:59:10.954Z,2.38
2023-02-03T05:01:38.602Z,2.50
2023-02-03T05:04:06.262Z,2.60
2023-02-03T05:06:34.760Z,2.70
2023-02-03T05:09:02.389Z,2.78
2023-02-03T05:11:31.664Z,2.35
2023-02-03T05:13:59.399Z,2.50
2023-02-03T05:16:27.190Z,2.45
2023-02-03T05:18:54.769Z,2.50
2023-02-03T05:21:22.356Z,2.75
2023-02-03T05:23:49.898Z,2.50
2023-02-03T05:26:17.672Z,2.50
2023-02-03T05:28:46.585Z,2.30
2023-02-03T05:31:14.300Z,2.30
2023-02-03T05:33:41.924Z,2.35
2023-02-03T05:36:10.673Z,2.20
2023-02-03T05:38:38.219Z,2.15
2023-02-03T05:41:23.834Z,2.55
2023-02-03T05:43:53.403Z,2.35
2023-02-03T05:46:20.939Z,2.10
2023-02-03T05:48:48.477Z,1.88
2023-02-03T05:51:16.131Z,1.90
2023-02-03T05:53:43.723Z,2.10
2023-02-03T05:56:11.266Z,1.85
2023-02-03T05:58:38.830Z,2.08
2023-02-03T06:01:07.763Z,1.90
2023-02-03T06:03:35.336Z,1.95
2023-02-03T06:06:02.935Z,2.13
2023-02-03T06:08:30.451Z,2.03
2023-02-03T06:11:01.144Z,1.70
2023-02-03T06:13:29.114Z,1.75
2023-02-03T06:15:57.495Z,1.70
2023-02-03T06:18:26.527Z,2.03
2023-02-03T06:20:54.213Z,1.77
2023-02-03T06:23:21.795Z,1.70
2023-02-03T06:25:50.796Z,1.95
2023-02-03T06:28:19.230Z,1.88
2023-02-03T06:30:50.303Z,1.83
2023-02-03T06:33:17.973Z,1.80
2023-02-03T06:35:46.954Z,1.70
2023-02-03T06:38:14.501Z,2.10
2023-02-03T06:40:42.052Z,1.90
2023-02-03T06:43:09.581Z,1.60
2023-02-03T06:45:37.186Z,1.80
2023-02-03T06:48:04.865Z,1.95
2023-02-03T06:50:32.688Z,1.67
2023-02-03T06:53:01.625Z,1.73
2023-02-03T06:55:29.263Z,1.60
2023-02-03T06:57:56.846Z,1.42
2023-02-03T07:00:24.730Z,1.80
2023-02-03T07:02:55.068Z,1.75
2023-02-03T07:05:23.220Z,1.90
2023-02-03T07:07:51.304Z,2.00
2023-02-03T07:10:20.700Z,1.70
2023-02-03T07:12:48.387Z,2.15
2023-02-03T07:15:16.827Z,2.10
2023-02-03T07:17:44.406Z,1.88
2023-02-03T07:20:12.798Z,2.10
2023-02-03T07:22:42.300Z,1.80
2023-02-03T07:25:09.821Z,2.00
2023-02-03T07:27:38.770Z,1.70
2023-02-03T07:30:07.229Z,1.60
2023-02-03T07:32:34.778Z,1.40
2023-02-03T07:35:02.314Z,1.60
2023-02-03T07:37:29.871Z,1.60
2023-02-03T07:39:57.508Z,1.50
2023-02-03T07:42:25.215Z,2.15
2023-02-03T07:44:54.099Z,2.72
2023-02-03T07:47:21.743Z,1.40
2023-02-03T07:49:49.420Z,1.80
2023-02-03T07:52:16.998Z,1.73
2023-02-03T07:54:44.570Z,1.50
2023-02-03T07:57:12.530Z,1.77
2023-02-03T07:59:40.394Z,2.60
2023-02-03T08:02:11.238Z,2.30
2023-02-03T08:04:39.081Z,2.25
2023-02-03T08:07:06.667Z,2.03
2023-02-03T08:09:34.302Z,1.60
2023-02-03T08:12:01.984Z,1.55
2023-02-03T08:14:31.212Z,1.65
2023-02-03T08:16:58.915Z,1.90
2023-02-03T08:19:27.850Z,1.40
2023-02-03T08:21:55.440Z,1.60
2023-02-03T08:24:23.083Z,1.70
2023-02-03T08:26:50.710Z,1.50
2023-02-03T08:29:18.591Z,1.50
2023-02-03T08:31:46.271Z,1.60
2023-02-03T08:34:13.933Z,1.67
2023-02-03T08:36:44.103Z,1.70
2023-02-03T08:39:11.870Z,1.35
2023-02-03T08:41:39.527Z,1.50
2023-02-03T08:44:07.194Z,1.20
2023-02-03T08:46:36.388Z,1.33
2023-02-03T08:49:04.086Z,1.17
2023-02-03T08:51:31.723Z,1.35
2023-02-03T08:54:00.664Z,1.00
2023-02-03T08:56:28.526Z,0.90
2023-02-03T08:58:56.169Z,1.00
2023-02-03T09:01:23.912Z,1.25
2023-02-03T09:03:51.597Z,1.15
2023-02-03T09:06:21.362Z,1.10
2023-02-03T09:08:50.430Z,1.10
2023-02-03T09:11:19.654Z,1.10
2023-02-03T09:13:48.537Z,0.90
2023-02-03T09:18:46.449Z,0.90
2023-02-03T09:21:32.055Z,1.13
2023-02-03T09:24:01.933Z,1.48
2023-02-03T09:26:31.505Z,1.60
2023-02-03T09:28:59.115Z,1.95
2023-02-03T09:31:26.813Z,2.70
2023-02-03T09:33:54.614Z,1.80
2023-02-03T09:36:22.604Z,1.52
2023-02-03T09:38:50.354Z,1.10
2023-02-03T09:41:29.702Z,1.20
2023-02-03T09:44:06.168Z,1.05
2023-02-03T09:46:38.910Z,1.30
2023-02-03T09:49:14.908Z,1.23
2023-02-03T09:51:49.402Z,1.10
2023-02-03T09:54:21.330Z,1.00
2023-02-03T09:56:52.464Z,0.90
2023-02-03T09:59:21.595Z,1.23
2023-02-03T10:01:59.348Z,1.10
2023-02-03T10:04:34.596Z,0.93
2023-02-03T10:07:12.871Z,1.00
2023-02-03T10:09:51.514Z,1.00
2023-02-03T10:12:51.326Z,1.10
2023-02-03T10:15:38.380Z,0.70
2023-02-03T10:18:10.774Z,0.80
2023-02-03T10:20:43.668Z,0.80
2023-02-03T10:23:16.071Z,1.00
2023-02-03T10:25:47.037Z,0.90
2023-02-03T10:28:19.230Z,1.17
2023-02-03T10:30:51.257Z,0.80
2023-02-03T10:33:22.078Z,0.90
2023-02-03T10:35:52.797Z,0.88
2023-02-03T10:38:36.618Z,0.80
2023-02-03T10:41:04.731Z,0.88
2023-02-03T10:43:51.353Z,0.75
2023-02-03T10:46:22.643Z,0.65
2023-02-03T10:48:50.598Z,0.60
2023-02-03T10:51:22.814Z,0.57
2023-02-03T10:53:53.238Z,0.55
2023-02-03T10:56:24.640Z,0.70
2023-02-03T10:58:55.292Z,0.52
2023-02-03T11:01:27.319Z,0.80
2023-02-03T11:03:58.949Z,0.60
2023-02-03T11:06:27.458Z,0.50
2023-02-03T11:08:55.916Z,0.40
2023-02-03T11:11:26.391Z,0.50
2023-02-03T11:13:55.924Z,0.40
2023-02-03T11:16:25.576Z,0.50
2023-02-03T11:18:59.087Z,0.60
2023-02-03T11:21:31.317Z,0.50
2023-02-03T11:24:04.709Z,0.30
2023-02-03T11:26:37.065Z,0.38
2023-02-03T11:29:08.148Z,0.45
2023-02-03T11:31:37.944Z,0.60
2023-02-03T11:34:08.784Z,0.50
2023-02-03T11:36:36.919Z,0.40
2023-02-03T11:39:22.707Z,0.40
2023-02-03T11:41:50.657Z,0.40
2023-02-03T11:44:21.191Z,0.38
2023-02-03T11:46:53.085Z,1.10
2023-02-03T11:49:56.237Z,0.38
2023-02-03T11:52:38.490Z,0.47
2023-02-03T11:55:17.346Z,0.60
2023-02-03T11:57:53.772Z,0.40
2023-02-03T12:00:31.634Z,0.40
2023-02-03T12:03:28.237Z,0.57
2023-02-03T12:06:19.311Z,0.60
2023-02-03T12:08:59.187Z,0.57
2023-02-03T12:11:38.984Z,0.50
2023-02-03T12:14:24.295Z,0.50
2023-02-03T12:17:19.055Z,0.50
2023-02-03T12:20:02.317Z,0.60
2023-02-03T12:22:44.918Z,0.43
2023-02-03T12:25:27.724Z,0.50
2023-02-03T12:28:02.201Z,0.90
2023-02-03T12:30:34.121Z,0.75
2023-02-03T12:33:07.335Z,0.52
2023-02-03T12:35:40.918Z,0.75
2023-02-03T12:38:15.305Z,0.50
2023-02-03T12:40:49.148Z,0.63
2023-02-03T12:43:25.503Z,0.60
2023-02-03T12:45:58.011Z,0.90
2023-02-03T12:48:30.080Z,0.63
2023-02-03T12:51:05.250Z,0.70
2023-02-03T12:53:36.015Z,0.80
2023-02-03T12:56:10.774Z,0.60
2023-02-03T12:58:42.876Z,0.57
2023-02-03T13:01:17.478Z,0.82
2023-02-03T13:03:51.278Z,0.50
2023-02-03T13:06:28.541Z,0.90
2023-02-03T13:09:02.293Z,0.82
2023-02-03T13:11:36.008Z,0.70
2023-02-03T13:14:14.302Z,0.60
2023-02-03T13:16:45.979Z,0.45
2023-02-03T13:19:23.962Z,0.80
2023-02-03T13:21:53.090Z,0.40
2023-02-03T13:24:24.740Z,0.40
2023-02-03T13:27:09.508Z,0.40
2023-02-03T13:29:54.288Z,0.60
2023-02-03T13:32:38.981Z,0.50
2023-02-03T13:35:33.190Z,0.50
2023-02-03T13:38:39.614Z,0.30
2023-02-03T13:41:13.957Z,0.40
2023-02-03T13:43:46.153Z,0.40
2023-02-03T13:46:24.131Z,0.30
2023-02-03T13:48:52.876Z,0.30
2023-02-03T13:51:25.035Z,0.55
2023-02-03T13:54:00.875Z,0.30
2023-02-03T13:56:29.369Z,0.50
2023-02-03T13:59:02.401Z,0.40
2023-02-03T14:01:38.620Z,0.30
2023-02-03T14:04:08.965Z,0.40
2023-02-03T14:07:00.935Z,0.50
2023-02-03T14:09:48.280Z,0.40
2023-02-03T14:12:22.422Z,0.80
2023-02-03T14:15:04.839Z,0.50
2023-02-03T14:18:07.262Z,0.60
2023-02-03T14:20:42.079Z,0.80
2023-02-03T14:23:15.773Z,0.80
2023-02-03T14:25:48.994Z,1.77
2023-02-03T14:28:20.474Z,1.10
2023-02-03T14:31:19.338Z,0.95
2023-02-03T14:33:58.256Z,1.20
2023-02-03T14:36:31.659Z,0.60
2023-02-03T14:39:03.448Z,0.77
2023-02-03T14:41:46.147Z,0.77
2023-02-03T14:44:29.392Z,1.00
2023-02-03T14:47:08.635Z,0.98
2023-02-03T14:49:49.824Z,0.77
2023-02-03T14:52:52.115Z,1.10
2023-02-03T14:55:49.379Z,3.72
2023-02-03T14:58:24.973Z,1.45
2023-02-03T15:00:54.692Z,1.00
2023-02-03T15:03:25.503Z,2.22
2023-02-03T15:05:56.803Z,1.55
2023-02-03T15:08:46.587Z,4.57
2023-02-03T15:11:24.599Z,3.55
2023-02-03T15:13:54.084Z,2.75
2023-02-03T15:16:23.842Z,6.22
2023-02-03T15:19:00.787Z,12.07
2023-02-03T15:21:28.413Z,9.48
2023-02-03T15:23:56.102Z,11.63
2023-02-03T15:26:26.125Z,0.82
2023-02-03T15:28:59.861Z,6.70
2023-02-03T15:31:33.849Z,14.48
2023-02-03T15:34:07.142Z,27.50
2023-02-03T15:36:43.235Z,14.07
2023-02-03T15:39:19.923Z,14.02
2023-02-03T15:41:49.776Z,4.35
2023-02-03T15:44:27.498Z,2.85
2023-02-03T15:46:56.177Z,8.27
2023-02-03T15:49:31.004Z,12.43
2023-02-03T15:52:02.476Z,13.03
2023-02-03T15:54:40.801Z,2.72
2023-02-03T15:57:11.537Z,1.00
2023-02-03T15:59:43.238Z,2.10
2023-02-03T16:02:20.349Z,4.32
2023-02-03T16:04:50.317Z,0.90
2023-02-03T16:07:22.072Z,1.10
2023-02-03T16:09:53.509Z,2.10
2023-02-03T16:12:25.281Z,4.28
2023-02-03T16:14:56.175Z,4.20
2023-02-03T16:17:27.706Z,1.85
2023-02-03T16:20:22.116Z,1.80
2023-02-03T16:23:03.229Z,1.10
2023-02-03T16:25:33.618Z,0.90
2023-02-03T16:28:20.504Z,1.00
2023-02-03T16:31:15.287Z,1.30
2023-02-03T16:34:03.589Z,1.95
2023-02-03T16:36:48.947Z,1.23
2023-02-03T16:39:33.811Z,0.80
2023-02-03T16:42:19.724Z,1.70
2023-02-03T16:45:05.072Z,1.30
2023-02-03T16:47:52.086Z,1.20
2023-02-03T16:50:40.103Z,2.72
2023-02-03T16:53:12.948Z,1.70
2023-02-03T16:55:40.567Z,3.97
2023-02-03T16:58:08.262Z,1.92
2023-02-03T17:00:36.157Z,3.17
2023-02-03T17:03:06.380Z,3.00
2023-02-03T17:05:37.735Z,1.40
2023-02-03T17:08:05.649Z,2.70
2023-02-03T17:10:35.067Z,2.85
2023-02-03T17:13:02.659Z,2.33
2023-02-03T17:15:31.000Z,2.05
2023-02-03T17:17:59.495Z,3.63
2023-02-03T17:20:28.466Z,4.78
2023-02-03T17:22:56.026Z,6.32
2023-02-03T17:25:23.549Z,6.50
2023-02-03T17:27:51.150Z,3.78
2023-02-03T17:30:18.896Z,4.20
2023-02-03T17:32:46.528Z,3.17
2023-02-03T17:35:14.144Z,1.20
2023-02-03T17:37:43.043Z,1.38
2023-02-03T17:54:06.072Z,2.00
2023-02-03T17:56:35.663Z,1.60
2023-02-03T17:59:06.063Z,2.40
2023-02-03T18:01:34.079Z,1.83
2023-02-03T18:04:04.482Z,4.10
2023-02-03T18:06:35.031Z,6.03
2023-02-03T18:09:04.974Z,6.53
2023-02-03T18:11:34.820Z,14.32
2023-02-03T18:14:03.722Z,10.05
2023-02-03T18:16:34.733Z,9.68
2023-02-03T18:19:03.471Z,6.78
2023-02-03T18:21:32.742Z,6.07
2023-02-03T18:24:01.698Z,4.82
2023-02-03T18:26:34.674Z,12.43
2023-02-03T18:29:02.443Z,26.65
2023-02-03T18:31:30.257Z,12.65
2023-02-03T18:34:02.181Z,9.68
2023-02-03T18:36:29.847Z,6.22
2023-02-03T18:38:57.427Z,24.30
2023-02-03T18:41:26.464Z,29.55
2023-02-03T18:43:55.444Z,18.52
2023-02-03T18:46:25.134Z,5.65
2023-02-03T18:48:52.897Z,10.27
2023-02-03T18:51:22.050Z,22.95
2023-02-03T18:53:50.613Z,9.02
2023-02-03T18:56:20.461Z,8.50
2023-02-03T18:58:48.372Z,6.13
2023-02-03T19:01:28.580Z,4.03
2023-02-03T19:03:58.386Z,6.55
2023-02-03T19:06:27.918Z,7.15
2023-02-03T19:08:55.879Z,25.95
2023-02-03T19:11:24.269Z,12.00
2023-02-03T19:13:52.018Z,19.63
2023-02-03T19:16:20.211Z,7.70
2023-02-03T19:18:49.354Z,5.30
2023-02-03T19:21:17.419Z,2.92
2023-02-03T19:23:45.167Z,12.60
2023-02-03T19:26:13.106Z,4.20
2023-02-03T19:28:41.911Z,4.60
2023-02-03T19:31:13.339Z,6.60
2023-02-03T19:33:41.137Z,5.82
2023-02-03T19:36:11.892Z,7.63
2023-02-03T19:38:40.188Z,7.85
2023-02-03T19:41:08.771Z,24.38
2023-02-03T19:43:36.573Z,14.85
2023-02-03T19:46:04.218Z,19.27
2023-02-03T19:48:31.908Z,3.63
2023-02-03T19:50:59.698Z,12.83
2023-02-03T19:53:28.938Z,6.25
2023-02-03T19:55:56.665Z,7.43
2023-02-03T19:58:24.553Z,7.43
2023-02-03T20:00:52.756Z,12.00
2023-02-03T20:03:20.682Z,6.72
2023-02-03T20:05:48.454Z,12.63
2023-02-03T20:08:16.692Z,12.27
2023-02-03T20:10:46.103Z,15.67
2023-02-03T20:13:14.382Z,10.90
2023-02-03T20:15:42.102Z,5.90
2023-02-03T20:18:10.976Z,3.35
2023-02-03T20:20:38.719Z,3.20
2023-02-03T20:23:06.405Z,3.88
2023-02-03T20:25:34.041Z,4.63
2023-02-03T20:28:04.219Z,3.70
2023-02-03T20:30:32.378Z,4.32
2023-02-03T20:33:00.366Z,6.80
2023-02-03T20:35:28.429Z,8.23
2023-02-03T20:37:56.140Z,7.38
2023-02-03T20:40:26.591Z,6.75
2023-02-03T20:42:54.168Z,6.57
2023-02-03T20:45:25.208Z,7.53
2023-02-03T20:47:52.987Z,8.63
2023-02-03T20:50:26.906Z,7.72
2023-02-03T20:52:59.072Z,5.63
2023-02-03T20:55:26.727Z,7.40
2023-02-03T20:57:56.764Z,7.07
2023-02-03T21:00:27.800Z,10.77
2023-02-03T21:03:13.687Z,6.85
2023-02-03T21:05:42.771Z,10.13
2023-02-03T21:08:15.123Z,6.60
2023-02-03T21:10:43.482Z,8.47
2023-02-03T21:13:22.646Z,11.32
2023-02-03T21:15:53.578Z,7.20
2023-02-03T21:18:33.626Z,9.00
2023-02-03T21:21:02.755Z,6.80
2023-02-03T21:23:38.678Z,5.78
2023-02-03T21:26:17.510Z,5.10
2023-02-03T21:28:45.158Z,9.90
2023-02-03T21:31:26.664Z,6.95
2023-02-03T21:33:55.213Z,7.68
2023-02-03T21:36:24.515Z,5.10
2023-02-03T21:38:54.584Z,8.57
2023-02-03T21:41:24.558Z,8.35
2023-02-03T21:43:54.440Z,6.95
2023-02-03T21:46:26.708Z,6.68
2023-02-03T21:48:55.502Z,8.00
2023-02-03T21:51:24.552Z,6.50
2023-02-03T21:53:57.705Z,13.48
2023-02-03T21:56:27.307Z,9.63
2023-02-03T21:58:58.826Z,9.13
2023-02-03T22:01:32.088Z,8.07
2023-02-03T22:04:01.424Z,5.00
2023-02-03T22:06:35.822Z,9.60
2023-02-03T22:09:03.484Z,4.35
2023-02-03T22:11:33.130Z,5.85
2023-02-03T22:14:00.806Z,4.15
2023-02-03T22:16:29.970Z,6.00
2023-02-03T22:18:57.565Z,3.83
2023-02-03T22:21:25.134Z,4.80
2023-02-03T22:23:52.985Z,4.70
2023-02-03T22:26:21.160Z,4.45
2023-02-03T22:28:49.061Z,4.60
2023-02-03T22:31:17.082Z,4.03
2023-02-03T22:33:46.327Z,3.88
2023-02-03T22:36:14.445Z,3.93
2023-02-03T22:38:42.514Z,4.53
2023-02-03T22:41:12.888Z,5.30
2023-02-03T22:43:41.224Z,4.13
2023-02-03T22:46:09.389Z,4.75
2023-02-03T22:48:37.251Z,4.53
2023-02-03T22:51:06.509Z,4.47
2023-02-03T22:53:34.721Z,3.47
2023-02-03T22:56:02.536Z,3.55
2023-02-03T22:58:30.101Z,3.13
2023-02-03T23:00:57.736Z,3.22
2023-02-03T23:03:25.401Z,3.53
2023-02-03T23:05:52.956Z,3.30
2023-02-03T23:08:21.891Z,2.80
2023-02-03T23:10:49.684Z,2.70
2023-02-03T23:13:17.273Z,2.60
2023-02-03T23:15:45.402Z,2.65
2023-02-03T23:18:13.045Z,2.72
2023-02-03T23:20:40.698Z,2.50
2023-02-03T23:23:08.336Z,2.50
2023-02-03T23:25:37.344Z,2.47
2023-02-03T23:28:05.351Z,2.60
2023-02-03T23:30:34.441Z,1.80
2023-02-03T23:33:02.082Z,2.03
2023-02-03T23:35:47.080Z,1.73
2023-02-03T23:38:15.111Z,1.65
2023-02-03T23:40:44.565Z,1.65
2023-02-03T23:43:12.264Z,1.50
2023-02-03T23:45:40.088Z,1.80
2023-02-03T23:48:08.153Z,1.13
2023-02-03T23:50:35.733Z,1.10
2023-02-03T23:53:03.264Z,1.00
2023-02-03T23:55:31.354Z,1.37
2023-02-03T23:58:00.344Z,1.17
